Time;durP1;ratioP1;P1;durP2;ratioP2;P2;SDS_P1;SDS_P2;PMS_P1;PMS_P2;Temp;Humidity;BMP_temperature;BMP_pressure;BME280_temperature;BME280_humidity;BME280_pressure;Samples;Min_cycle;Max_cycle;Signal;HPM_P1;HPM_P2
2022/12/26 00:01:27;;;;;;;12.95;8.15;;;;;;;8.06;100.00;100465.81;7400634;19;20081;-72
2022/12/26 00:04:03;;;;;;;11.80;7.88;;;;;;;8.06;100.00;100461.47;7400071;19;20014;-72
2022/12/26 00:06:33;;;;;;;12.85;8.02;;;;;;;8.09;100.00;100468.41;7398300;19;20094;-73
2022/12/26 00:09:03;;;;;;;11.73;7.57;;;;;;;8.10;100.00;100470.09;7399630;19;20022;-72
2022/12/26 00:11:31;;;;;;;10.70;6.78;;;;;;;8.12;100.00;100468.34;7398650;19;20190;-73
2022/12/26 00:14:03;;;;;;;8.57;6.65;;;;;;;8.13;100.00;100457.84;7400089;19;20019;-73
2022/12/26 00:16:34;;;;;;;12.15;7.07;;;;;;;8.14;100.00;100451.75;7398193;19;20035;-72
2022/12/26 00:19:03;;;;;;;10.20;6.35;;;;;;;8.17;100.00;100456.06;7400165;19;20038;-72
2022/12/26 00:21:32;;;;;;;9.43;5.90;;;;;;;8.18;100.00;100465.63;7399477;19;20011;-73
2022/12/26 00:24:02;;;;;;;8.25;6.15;;;;;;;8.19;100.00;100454.28;7396848;19;20107;-73
2022/12/26 00:26:33;;;;;;;8.23;5.75;;;;;;;8.20;100.00;100456.03;7398163;19;20051;-73
2022/12/26 00:29:02;;;;;;;9.18;5.35;;;;;;;8.20;100.00;100450.81;7398905;19;20405;-72
2022/12/26 00:31:35;;;;;;;10.05;5.90;;;;;;;8.23;100.00;100450.72;7399151;19;20021;-73
2022/12/26 00:34:04;;;;;;;6.95;5.30;;;;;;;8.24;100.00;100456.81;7394344;19;20174;-74
2022/12/26 00:36:34;;;;;;;9.23;5.25;;;;;;;8.25;100.00;100456.81;7396664;19;20014;-72
2022/12/26 00:39:04;;;;;;;6.40;4.88;;;;;;;8.25;100.00;100459.41;7399337;19;20476;-72
2022/12/26 00:41:33;;;;;;;7.40;5.20;;;;;;;8.25;100.00;100448.97;7396906;19;20166;-72
2022/12/26 00:44:02;;;;;;;6.57;5.13;;;;;;;8.28;100.00;100448.06;7399194;19;20015;-72
2022/12/26 00:46:30;;;;;;;7.53;5.30;;;;;;;8.28;100.00;100443.69;7397478;19;20369;-72
2022/12/26 00:49:01;;;;;;;5.88;5.07;;;;;;;8.28;100.00;100454.13;7397571;19;20025;-74
2022/12/26 00:51:30;;;;;;;7.28;4.95;;;;;;;8.29;100.00;100455.88;7399110;19;20015;-75
2022/12/26 00:53:58;;;;;;;9.07;5.63;;;;;;;8.28;100.00;100446.28;7398595;19;20013;-74
2022/12/26 00:56:27;;;;;;;9.85;5.68;;;;;;;8.30;100.00;100444.53;7397085;19;20094;-73
2022/12/26 00:58:55;;;;;;;11.60;5.43;;;;;;;8.31;100.00;100443.63;7398244;19;20485;-68
2022/12/26 01:01:24;;;;;;;7.78;5.78;;;;;;;8.33;100.00;100435.75;7398424;19;20020;-69
2022/12/26 01:03:53;;;;;;;9.90;5.50;;;;;;;8.35;100.00;100428.75;7398333;19;20018;-68
2022/12/26 01:06:24;;;;;;;6.93;5.32;;;;;;;8.36;100.00;100427.84;7396045;19;20078;-68
2022/12/26 01:08:54;;;;;;;5.47;4.72;;;;;;;8.37;100.00;100426.97;7396656;19;20197;-69
2022/12/26 01:14:04;;;;;;;5.97;4.93;;;;;;;8.42;100.00;100446.06;7395324;19;20026;-69
2022/12/26 01:16:32;;;;;;;6.80;5.60;;;;;;;8.48;100.00;100434.66;7396357;19;20074;-70
2022/12/26 01:19:00;;;;;;;9.50;5.20;;;;;;;8.54;100.00;100434.53;7398011;19;20022;-67
2022/12/26 01:21:31;;;;;;;7.07;5.40;;;;;;;8.59;100.00;100424.00;7395892;19;20087;-72
2022/12/26 01:24:00;;;;;;;9.50;4.72;;;;;;;8.60;100.00;100428.34;7398375;19;20085;-72
2022/12/26 01:26:29;;;;;;;9.02;5.20;;;;;;;8.59;100.00;100424.88;7397075;19;20082;-71
2022/12/26 01:28:57;;;;;;;7.60;4.70;;;;;;;8.55;100.00;100425.81;7397613;19;20081;-73
2022/12/26 01:31:25;;;;;;;6.60;4.10;;;;;;;8.54;100.00;100439.75;7398067;19;20029;-73
2022/12/26 01:33:54;;;;;;;5.75;3.65;;;;;;;8.52;100.00;100438.06;7397481;19;20028;-73
2022/12/26 01:36:22;;;;;;;4.93;4.13;;;;;;;8.48;100.00;100430.28;7395819;19;20081;-73
2022/12/26 01:38:53;;;;;;;5.60;4.45;;;;;;;8.47;100.00;100414.63;7397143;19;20094;-73
2022/12/26 01:41:22;;;;;;;6.78;3.75;;;;;;;8.45;100.00;100403.31;7397484;19;20031;-73
2022/12/26 01:43:57;;;;;;;5.47;3.80;;;;;;;8.44;100.00;100406.78;7395855;19;20011;-73
2022/12/26 01:46:33;;;;;;;5.05;4.25;;;;;;;8.43;100.00;100407.72;7395320;19;20027;-73
2022/12/26 01:49:08;;;;;;;6.18;4.28;;;;;;;8.42;100.00;100414.69;7396692;19;20029;-73
2022/12/26 01:51:41;;;;;;;5.38;4.30;;;;;;;8.42;100.00;100424.28;7396955;19;20015;-72
2022/12/26 01:54:15;;;;;;;6.63;4.30;;;;;;;8.40;100.00;100420.81;7396470;19;20011;-74
2022/12/26 01:56:46;;;;;;;4.68;3.90;;;;;;;8.40;100.00;100411.22;7395630;19;20433;-73
2022/12/26 01:59:24;;;;;;;7.45;4.00;;;;;;;8.40;100.00;100411.22;7396986;19;20019;-74
2022/12/26 02:01:55;;;;;;;6.90;4.38;;;;;;;8.40;100.00;100416.44;7396538;19;20015;-72
2022/12/26 02:07:09;;;;;;;6.95;4.70;;;;;;;8.41;100.00;100401.63;7394877;19;20007;-73
2022/12/26 02:09:40;;;;;;;7.00;4.82;;;;;;;8.39;100.00;100406.91;7395477;19;20022;-73
2022/12/26 02:12:20;;;;;;;5.63;4.22;;;;;;;8.41;100.00;100404.25;7393902;19;20083;-73
2022/12/26 02:14:50;;;;;;;6.32;4.57;;;;;;;8.40;100.00;100399.91;7397326;19;20100;-71
2022/12/26 02:17:19;;;;;;;5.93;4.90;;;;;;;8.40;100.00;100403.38;7394439;19;20029;-72
2022/12/26 02:19:59;;;;;;;7.20;4.65;;;;;;;8.41;100.00;100412.09;7395920;19;20025;-72
2022/12/26 02:23:04;;;;;;;6.10;4.55;;;;;;;8.40;100.00;100413.81;7395604;19;20489;-71
2022/12/26 02:26:06;;;;;;;8.38;4.55;;;;;;;8.41;100.00;100425.16;7395098;19;20420;-71
2022/12/26 02:28:59;;;;;;;7.20;4.32;;;;;;;8.40;100.00;100411.22;7396221;19;20086;-71
2022/12/26 02:31:37;;;;;;;8.80;4.38;;;;;;;8.41;100.00;100409.47;7394344;19;20014;-71
2022/12/26 02:34:15;;;;;;;5.70;4.53;;;;;;;8.39;100.00;100399.06;7396064;19;20098;-71
2022/12/26 02:37:08;;;;;;;9.13;4.97;;;;;;;8.42;100.00;100408.59;7393984;19;20020;-70
2022/12/26 02:39:58;;;;;;;6.18;4.45;;;;;;;8.42;100.00;100403.38;7395357;19;20093;-71
2022/12/26 02:42:38;;;;;;;6.07;4.40;;;;;;;8.42;100.00;100400.75;7395402;19;20019;-71
2022/12/26 02:48:09;;;;;;;6.88;4.97;;;;;;;8.43;100.00;100403.34;7395423;19;20007;-70
2022/12/26 03:13:12;;;;;;;9.20;5.47;;;;;;;8.53;100.00;100413.66;7400007;19;20021;-70
2022/12/26 03:18:32;;;;;;;8.77;5.28;;;;;;;8.57;100.00;100413.56;7402132;19;20018;-71
2022/12/26 03:21:03;;;;;;;6.00;4.88;;;;;;;8.58;100.00;100417.91;7402373;19;20078;-71
2022/12/26 03:23:33;;;;;;;9.95;5.65;;;;;;;8.59;100.00;100414.41;7402277;19;20066;-71
2022/12/26 03:28:49;;;;;;;8.43;5.75;;;;;;;8.59;100.00;100408.31;7401763;19;20006;-70
2022/12/26 03:31:16;;;;;;;6.25;5.07;;;;;;;8.59;100.00;100409.19;7401576;19;20021;-71
2022/12/26 03:36:41;;;;;;;9.82;5.38;;;;;;;8.59;100.00;100408.31;7399464;19;20496;-71
2022/12/26 03:39:20;;;;;;;8.88;6.15;;;;;;;8.60;100.00;100410.03;7401762;19;20025;-70
2022/12/26 04:41:34;;;;;;;7.95;5.53;;;;;;;8.69;100.00;100446.47;7400112;19;20007;-70
2022/12/26 04:46:04;;;;;;;6.85;4.78;;;;;;;8.89;100.00;100424.31;7397548;19;20014;-71
2022/12/26 04:51:13;;;;;;;5.93;5.07;;;;;;;8.92;100.00;100427.72;7396583;19;20006;-70
2022/12/26 04:53:42;;;;;;;4.70;4.20;;;;;;;8.94;100.00;100423.31;7398466;19;20023;-70
2022/12/26 04:56:13;;;;;;;8.40;5.15;;;;;;;8.96;100.00;100439.84;7396175;19;20485;-70
2022/12/26 04:58:44;;;;;;;5.65;4.55;;;;;;;8.96;100.00;100447.69;7398157;19;20021;-71
2022/12/26 05:12:00;;;;;;;5.50;4.25;;;;;;;9.09;100.00;100457.94;7398696;19;20549;-71
2022/12/26 05:14:34;;;;;;;7.07;4.47;;;;;;;9.11;100.00;100469.22;7398560;19;20098;-70
2022/12/26 05:30:44;;;;;;;6.75;4.30;;;;;;;9.26;99.57;100496.84;7396851;19;20021;-70
2022/12/26 05:35:54;;;;;;;5.93;4.00;;;;;;;9.33;100.00;100489.75;7396822;19;20074;-70
2022/12/26 05:38:29;;;;;;;5.47;3.78;;;;;;;9.36;100.00;100494.91;7397374;19;20074;-71
2022/12/26 05:40:57;;;;;;;4.97;4.03;;;;;;;9.39;100.00;100486.97;7396711;19;20082;-70
2022/12/26 05:43:25;;;;;;;4.43;3.95;;;;;;;9.41;100.00;100493.88;7397163;19;20077;-71
2022/12/26 05:45:56;;;;;;;4.85;3.53;;;;;;;9.43;100.00;100472.94;7396743;19;20019;-71
2022/12/26 05:48:25;;;;;;;6.18;3.90;;;;;;;9.43;99.98;100473.78;7395738;19;20022;-70
2022/12/26 05:50:54;;;;;;;4.72;3.58;;;;;;;9.47;100.00;100473.75;7395290;19;20014;-72
2022/12/26 05:53:22;;;;;;;4.97;3.83;;;;;;;9.47;99.86;100473.75;7396807;19;20090;-69
2022/12/26 05:55:50;;;;;;;5.95;3.65;;;;;;;9.49;99.29;100464.06;7396146;19;20011;-70
2022/12/26 05:58:19;;;;;;;5.22;3.40;;;;;;;9.50;98.64;100466.66;7396342;19;20503;-70
2022/12/26 06:00:47;;;;;;;4.80;3.88;;;;;;;9.53;99.33;100484.94;7396633;19;20090;-69
2022/12/26 06:03:18;;;;;;;6.28;4.20;;;;;;;9.52;99.22;100477.13;7394910;19;20044;-69
2022/12/26 06:05:47;;;;;;;6.35;3.70;;;;;;;9.55;99.87;100472.66;7395601;19;20505;-70
2022/12/26 06:08:15;;;;;;;6.07;3.58;;;;;;;9.55;99.94;100483.13;7394358;19;20365;-70
2022/12/26 06:10:44;;;;;;;4.10;3.53;;;;;;;9.54;99.96;100476.19;7395278;19;20078;-71
2022/12/26 06:13:18;;;;;;;5.75;4.25;;;;;;;9.54;100.00;100459.59;7394099;19;20013;-70
2022/12/26 06:15:53;;;;;;;5.82;4.22;;;;;;;9.52;100.00;100461.41;7396003;19;20116;-70
2022/12/26 06:18:24;;;;;;;7.35;4.00;;;;;;;9.50;99.90;100457.94;7395738;19;20014;-71
2022/12/26 06:20:52;;;;;;;5.75;3.67;;;;;;;9.50;100.00;100450.94;7396420;19;20025;-70
2022/12/26 06:23:20;;;;;;;5.13;3.75;;;;;;;9.50;99.89;100434.38;7396357;19;20548;-70
2022/12/26 06:25:55;;;;;;;4.45;3.47;;;;;;;9.46;99.81;100449.28;7394992;19;20085;-70
2022/12/26 06:28:25;;;;;;;5.90;3.60;;;;;;;9.45;98.18;100477.25;7395559;19;20078;-72
2022/12/26 06:30:54;;;;;;;4.13;3.33;;;;;;;9.43;99.42;100486.03;7391637;19;20082;-71
2022/12/26 06:33:25;;;;;;;5.97;3.97;;;;;;;9.42;99.63;100498.25;7395672;19;20021;-70
2022/12/26 06:35:53;;;;;;;4.45;3.97;;;;;;;9.43;99.48;100509.59;7395303;19;20164;-71
2022/12/26 06:38:21;;;;;;;5.70;3.60;;;;;;;9.41;99.27;100504.38;7393752;19;20017;-70
2022/12/26 06:40:50;;;;;;;5.38;4.07;;;;;;;9.38;99.00;100501.81;7395326;19;20086;-72
2022/12/26 06:43:18;;;;;;;7.00;3.88;;;;;;;9.40;98.97;100497.44;7395012;19;20439;-71
2022/12/26 06:45:56;;;;;;;6.72;3.97;;;;;;;9.40;99.88;100507.03;7394641;19;20019;-71
2022/12/26 06:48:27;;;;;;;7.05;4.40;;;;;;;9.40;99.26;100507.03;7395524;19;20030;-70
2022/12/26 06:50:56;;;;;;;6.30;4.10;;;;;;;9.41;99.00;100517.47;7393708;19;20011;-72
2022/12/26 06:53:26;;;;;;;5.68;3.95;;;;;;;9.42;98.86;100515.72;7393362;19;20093;-70
2022/12/26 06:55:54;;;;;;;5.47;3.55;;;;;;;9.43;99.28;100513.06;7393913;19;20089;-71
2022/12/26 06:58:23;;;;;;;5.32;3.50;;;;;;;9.46;99.93;100514.75;7393158;19;20018;-71
2022/12/26 07:00:51;;;;;;;6.80;3.85;;;;;;;9.46;98.50;100512.13;7394603;19;20015;-71
2022/12/26 07:03:24;;;;;;;5.55;3.92;;;;;;;9.48;99.34;100518.22;7394576;19;20443;-71
2022/12/26 07:05:55;;;;;;;5.72;3.78;;;;;;;9.45;98.54;100511.28;7394497;19;20035;-71
2022/12/26 07:08:24;;;;;;;4.88;3.65;;;;;;;9.50;98.95;100518.19;7394549;19;20428;-71
2022/12/26 07:10:52;;;;;;;4.15;3.70;;;;;;;9.53;99.76;100526.84;7393664;19;20015;-72
2022/12/26 07:13:20;;;;;;;4.40;3.33;;;;;;;9.51;99.72;100520.75;7393146;19;20078;-71
2022/12/26 07:15:49;;;;;;;4.93;3.55;;;;;;;9.56;100.00;100525.91;7393351;19;20082;-71
2022/12/26 07:18:18;;;;;;;5.93;3.95;;;;;;;9.55;100.00;100525.03;7394052;19;20015;-71
2022/12/26 07:20:46;;;;;;;4.50;3.35;;;;;;;9.56;99.87;100529.38;7394054;19;20377;-68
2022/12/26 07:23:17;;;;;;;6.57;4.10;;;;;;;9.57;100.00;100525.88;7394453;19;20093;-68
2022/12/26 07:25:48;;;;;;;6.18;4.28;;;;;;;9.59;99.27;100520.59;7391767;19;20015;-68
2022/12/26 07:28:17;;;;;;;3.83;3.40;;;;;;;9.61;98.08;100509.19;7391851;19;20450;-68
2022/12/26 07:30:48;;;;;;;7.45;3.53;;;;;;;9.64;98.69;100523.97;7393398;19;20017;-71
2022/12/26 07:33:17;;;;;;;4.88;3.33;;;;;;;9.65;98.12;100525.69;7393712;19;20501;-71
2022/12/26 07:35:46;;;;;;;6.50;3.17;;;;;;;9.66;99.34;100531.81;7393237;19;20081;-71
2022/12/26 07:38:17;;;;;;;5.13;3.58;;;;;;;9.61;98.07;100538.00;7393620;19;20561;-71
2022/12/26 07:40:45;;;;;;;7.25;4.28;;;;;;;9.59;98.80;100534.56;7393530;19;20514;-70
2022/12/26 07:43:14;;;;;;;5.63;3.80;;;;;;;9.59;99.84;100531.06;7398867;19;20086;-71
2022/12/26 07:45:42;;;;;;;7.57;3.97;;;;;;;9.57;99.55;100536.34;7399564;19;20549;-70
2022/12/26 07:48:10;;;;;;;6.80;4.13;;;;;;;9.57;100.00;100531.09;7401028;19;20089;-71
2022/12/26 07:50:39;;;;;;;5.75;4.32;;;;;;;9.55;99.62;100545.13;7399902;19;20078;-71
2022/12/26 07:53:07;;;;;;;9.23;4.35;;;;;;;9.53;100.00;100550.41;7400542;19;20085;-71
2022/12/26 07:55:38;;;;;;;5.88;3.70;;;;;;;9.56;100.00;100549.47;7399626;19;20477;-71
2022/12/26 07:58:07;;;;;;;6.28;3.70;;;;;;;9.55;100.00;100569.56;7401068;19;20078;-70
2022/12/26 08:00:35;;;;;;;7.03;4.53;;;;;;;9.52;100.00;100574.00;7400123;19;20082;-69
2022/12/26 08:03:04;;;;;;;6.70;4.00;;;;;;;9.54;100.00;100577.44;7400518;19;20025;-70
2022/12/26 08:05:32;;;;;;;5.20;3.95;;;;;;;9.53;100.00;100587.06;7399573;19;20419;-69
2022/12/26 08:08:00;;;;;;;6.70;3.95;;;;;;;9.54;100.00;100590.53;7400238;19;20089;-70
2022/12/26 08:10:29;;;;;;;8.00;4.60;;;;;;;9.52;100.00;100587.09;7399735;19;20019;-71
2022/12/26 08:13:00;;;;;;;6.78;4.70;;;;;;;9.51;100.00;100591.47;7398873;19;20070;-70
2022/12/26 08:15:28;;;;;;;7.03;4.68;;;;;;;9.51;100.00;100591.47;7399922;19;20074;-70
2022/12/26 08:17:57;;;;;;;7.63;4.35;;;;;;;9.49;100.00;100580.19;7399645;19;20502;-70
2022/12/26 08:20:25;;;;;;;7.82;4.50;;;;;;;9.47;100.00;100568.00;7399964;19;20082;-70
2022/12/26 08:22:54;;;;;;;9.05;5.75;;;;;;;9.43;100.00;100561.97;7399573;19;20011;-69
2022/12/26 08:25:22;;;;;;;7.65;4.82;;;;;;;9.36;100.00;100558.59;7398989;19;20556;-69
2022/12/26 08:27:51;;;;;;;10.30;5.68;;;;;;;9.31;100.00;100563.06;7399681;19;20078;-71
2022/12/26 08:30:22;;;;;;;8.10;5.93;;;;;;;9.27;100.00;100561.38;7399294;19;20078;-71
2022/12/26 08:32:52;;;;;;;12.00;7.50;;;;;;;9.23;100.00;100564.97;7400912;19;20031;-71
2022/12/26 08:35:21;;;;;;;8.00;6.05;;;;;;;9.20;100.00;100565.88;7399508;19;20363;-71
2022/12/26 08:37:49;;;;;;;12.57;6.45;;;;;;;9.19;100.00;100564.16;7399144;19;20088;-71
2022/12/26 08:40:18;;;;;;;10.75;6.60;;;;;;;9.18;100.00;100559.81;7399184;19;20029;-71
2022/12/26 08:42:46;;;;;;;21.35;12.60;;;;;;;9.16;100.00;100553.72;7398756;19;20070;-71
2022/12/26 08:45:15;;;;;;;14.23;10.25;;;;;;;9.13;100.00;100557.28;7398768;19;20036;-71
2022/12/26 08:47:46;;;;;;;13.35;9.05;;;;;;;9.12;100.00;100557.31;7398837;19;20014;-70
2022/12/26 08:50:15;;;;;;;11.50;7.85;;;;;;;9.10;100.00;100565.19;7399089;19;20023;-72
2022/12/26 08:52:43;;;;;;;10.98;7.43;;;;;;;9.10;100.00;100572.19;7396628;19;20018;-72
2022/12/26 08:55:12;;;;;;;15.07;11.90;;;;;;;9.10;100.00;100574.81;7396024;19;20023;-70
2022/12/26 08:57:40;;;;;;;10.48;8.88;;;;;;;9.09;100.00;100576.53;7398250;19;20477;-71
2022/12/26 09:00:11;;;;;;;10.95;9.65;;;;;;;9.07;100.00;100580.97;7398533;19;20022;-70
2022/12/26 09:02:39;;;;;;;10.82;9.20;;;;;;;9.07;100.00;100577.47;7398279;19;20102;-72
2022/12/26 09:05:11;;;;;;;11.40;9.55;;;;;;;9.06;100.00;100583.59;7397534;19;20541;-71
2022/12/26 09:07:39;;;;;;;17.52;9.73;;;;;;;9.06;100.00;100576.63;7397588;19;20082;-71
2022/12/26 09:10:09;;;;;;;10.30;7.82;;;;;;;9.04;100.00;100591.47;7397467;19;20548;-70
2022/12/26 09:12:37;;;;;;;9.50;6.82;;;;;;;9.03;100.00;100587.13;7395852;19;20014;-71
2022/12/26 09:15:06;;;;;;;8.95;6.78;;;;;;;9.04;100.00;100593.25;7398113;19;20013;-71
2022/12/26 09:17:35;;;;;;;10.32;7.25;;;;;;;9.04;100.00;100596.69;7397959;19;20018;-71
2022/12/26 09:20:03;;;;;;;10.93;7.72;;;;;;;9.06;100.00;100599.28;7397440;19;20548;-71
2022/12/26 09:25:15;;;;;;;10.02;6.30;;;;;;;9.06;100.00;100592.31;7397477;19;20022;-70
2022/12/26 09:27:44;;;;;;;11.65;6.50;;;;;;;9.06;100.00;100588.81;7397255;19;20476;-71
2022/12/26 09:30:13;;;;;;;8.32;6.07;;;;;;;9.06;100.00;100597.56;7397178;19;20422;-71
2022/12/26 09:32:41;;;;;;;9.30;6.57;;;;;;;9.07;100.00;100601.03;7395501;19;20015;-71
2022/12/26 09:35:10;;;;;;;9.27;6.30;;;;;;;9.08;100.00;100603.59;7396889;19;20033;-71
2022/12/26 09:37:42;;;;;;;15.25;6.38;;;;;;;9.07;100.00;100595.78;7395275;19;20022;-71
2022/12/26 09:40:21;;;;;;;11.35;6.88;;;;;;;9.09;100.00;100601.88;7397726;19;20094;-71
2022/12/26 09:42:59;;;;;;;12.70;6.68;;;;;;;9.11;100.00;100597.44;7395384;19;20091;-72
2022/12/26 09:45:39;;;;;;;11.55;6.80;;;;;;;9.12;100.00;100596.56;7397110;19;20007;-71
2022/12/26 09:48:18;;;;;;;9.73;7.03;;;;;;;9.13;100.00;100591.28;7395760;19;20074;-72
2022/12/26 09:50:50;;;;;;;10.73;6.47;;;;;;;9.15;100.00;100593.91;7396300;19;20481;-71
2022/12/26 09:53:27;;;;;;;9.50;6.35;;;;;;;9.16;100.00;100600.00;7397185;19;20091;-72
2022/12/26 09:55:59;;;;;;;11.43;5.97;;;;;;;9.17;100.00;100597.34;7396263;19;20074;-72
2022/12/26 09:58:30;;;;;;;9.18;6.35;;;;;;;9.19;100.00;100598.19;7396997;19;20090;-73
2022/12/26 10:01:03;;;;;;;11.00;6.55;;;;;;;9.21;100.00;100606.88;7396216;19;20078;-72
2022/12/26 10:03:32;;;;;;;12.50;6.80;;;;;;;9.20;100.00;100607.78;7395223;19;20086;-72
2022/12/26 10:06:16;;;;;;;14.77;7.15;;;;;;;9.22;100.00;100605.13;7395030;19;20007;-72
2022/12/26 10:09:14;;;;;;;10.60;7.10;;;;;;;9.21;100.00;100609.50;7395979;19;20424;-72
2022/12/26 10:11:57;;;;;;;9.30;6.35;;;;;;;9.21;100.00;100613.84;7395822;19;20021;-72
2022/12/26 10:14:39;;;;;;;9.95;7.03;;;;;;;9.19;100.00;100611.28;7393840;19;20544;-72
2022/12/26 10:17:19;;;;;;;10.85;6.20;;;;;;;9.18;100.00;100617.41;7394557;19;20082;-73
2022/12/26 10:20:01;;;;;;;12.48;6.93;;;;;;;9.16;100.00;100620.94;7396259;19;20019;-71
2022/12/26 10:22:56;;;;;;;11.50;6.50;;;;;;;9.14;100.00;100623.59;7396418;19;20095;-72
2022/12/26 10:25:43;;;;;;;11.93;6.53;;;;;;;9.13;100.00;100621.84;7393861;19;20098;-72
2022/12/26 10:28:19;;;;;;;12.85;7.10;;;;;;;9.12;100.00;100627.97;7394217;19;20018;-73
2022/12/26 10:30:48;;;;;;;10.02;6.28;;;;;;;9.11;100.00;100624.50;7396105;19;20029;-72
2022/12/26 10:33:23;;;;;;;8.32;5.63;;;;;;;9.10;100.00;100633.25;7395169;19;20021;-73
2022/12/26 10:35:51;;;;;;;7.88;5.75;;;;;;;9.10;100.00;100627.16;7394084;19;20022;-73
2022/12/26 10:38:28;;;;;;;8.43;6.50;;;;;;;9.10;100.00;100621.91;7395052;19;20023;-73
2022/12/26 10:41:05;;;;;;;10.25;6.30;;;;;;;9.08;100.00;100626.31;7395237;19;20022;-72
2022/12/26 10:43:36;;;;;;;10.63;6.68;;;;;;;9.08;100.00;100618.47;7396151;19;20022;-72
2022/12/26 10:46:31;;;;;;;8.27;6.15;;;;;;;9.09;100.00;100625.44;7393587;19;20026;-73
2022/12/26 10:49:00;;;;;;;12.65;9.38;;;;;;;9.08;100.00;100611.47;7395501;19;20081;-73
2022/12/26 10:51:29;;;;;;;10.57;7.82;;;;;;;9.10;100.00;100624.53;7393004;19;20034;-73
2022/12/26 10:53:57;;;;;;;9.85;6.65;;;;;;;9.06;100.00;100602.78;7392952;19;20440;-72
2022/12/26 10:56:29;;;;;;;10.02;6.43;;;;;;;9.10;100.00;100608.84;7393503;19;20557;-72
2022/12/26 10:59:03;;;;;;;8.45;5.88;;;;;;;9.10;100.00;100607.06;7395184;19;20073;-72
2022/12/26 11:01:33;;;;;;;;;;;;;;;9.10;100.00;100603.59;7395625;19;20017;-72
2022/12/26 11:04:03;;;;;;;7.63;5.35;;;;;;;9.06;100.00;100596.66;7397521;19;19930;-73
2022/12/26 11:06:35;;;;;;;9.98;6.30;;;;;;;9.10;100.00;100606.22;7397745;19;20022;-72
2022/12/26 11:09:04;;;;;;;8.77;5.60;;;;;;;9.11;100.00;100607.91;7397164;19;20027;-73
2022/12/26 11:11:47;;;;;;;11.35;5.80;;;;;;;9.12;100.00;100609.66;7399250;19;20082;-72
2022/12/26 11:14:30;;;;;;;8.38;5.18;;;;;;;9.12;100.00;100620.13;7392713;19;20006;-71
2022/12/26 11:17:02;;;;;;;8.88;5.40;;;;;;;9.12;100.00;100610.53;7393674;19;20070;-69
2022/12/26 11:19:33;;;;;;;6.63;5.07;;;;;;;9.12;100.00;100610.53;7402127;19;20410;-69
2022/12/26 11:22:26;;;;;;;9.02;5.47;;;;;;;9.12;100.00;100609.66;7401210;19;20074;-70
2022/12/26 11:25:18;;;;;;;6.45;5.22;;;;;;;9.12;100.00;100601.81;7401903;19;20022;-70
2022/12/26 11:27:58;;;;;;;9.68;5.47;;;;;;;9.13;100.00;100599.16;7398541;19;20018;-70
2022/12/26 11:30:30;;;;;;;8.05;4.95;;;;;;;9.13;100.00;100585.22;7399523;19;20094;-70
2022/12/26 11:33:15;;;;;;;6.25;5.00;;;;;;;9.11;100.00;100593.09;7399867;19;20029;-71
2022/12/26 11:35:52;;;;;;;6.65;4.90;;;;;;;9.11;100.00;100607.91;7401164;19;20086;-70
2022/12/26 11:43:51;;;;;;;9.00;4.93;;;;;;;9.15;100.00;100633.16;7401566;19;20511;-69
2022/12/26 11:46:19;;;;;;;8.25;4.95;;;;;;;9.15;100.00;100630.56;7399512;19;20019;-70
2022/12/26 11:48:52;;;;;;;6.45;4.93;;;;;;;9.18;100.00;100627.88;7398561;19;20011;-71
2022/12/26 11:51:35;;;;;;;7.47;5.55;;;;;;;9.18;100.00;100629.63;7400349;19;20014;-69
2022/12/26 11:54:23;;;;;;;6.13;5.10;;;;;;;9.21;100.00;100634.81;7400406;19;20018;-72
2022/12/26 11:57:03;;;;;;;8.50;6.35;;;;;;;9.21;100.00;100630.44;7398050;19;20420;-72
2022/12/26 11:59:34;;;;;;;8.35;6.60;;;;;;;9.24;100.00;100632.16;7400340;19;20435;-71
2022/12/26 12:02:25;;;;;;;12.02;6.68;;;;;;;9.25;100.00;100616.41;7398231;19;20017;-72
2022/12/26 12:04:57;;;;;;;9.45;6.45;;;;;;;9.27;100.00;100613.75;7399928;19;20011;-70
2022/12/26 12:07:50;;;;;;;11.00;6.40;;;;;;;9.27;100.00;100614.59;7397817;19;20425;-70
2022/12/26 12:10:51;;;;;;;7.22;5.93;;;;;;;9.30;100.00;100605.81;7396898;19;20420;-70
2022/12/26 12:13:40;;;;;;;10.43;7.60;;;;;;;9.32;100.00;100603.19;7394721;19;20003;-69
2022/12/26 12:16:30;;;;;;;10.50;6.72;;;;;;;9.33;100.00;100604.94;7398405;19;20074;-70
2022/12/26 12:19:09;;;;;;;11.32;7.15;;;;;;;9.33;100.00;100612.78;7402338;19;20081;-71
2022/12/26 12:21:45;;;;;;;9.70;6.53;;;;;;;9.33;100.00;100620.66;7397639;19;20021;-71
2022/12/26 12:24:36;;;;;;;9.68;6.78;;;;;;;9.32;100.00;100625.00;7399134;19;20027;-71
2022/12/26 12:27:13;;;;;;;9.60;6.60;;;;;;;9.33;100.00;100623.25;7397388;19;20493;-69
2022/12/26 12:30:00;;;;;;;9.30;6.78;;;;;;;9.32;100.00;100613.69;7396867;19;20495;-70
2022/12/26 12:32:41;;;;;;;11.90;6.50;;;;;;;9.31;100.00;100619.78;7398380;19;20022;-71
2022/12/26 12:35:41;;;;;;;9.02;6.43;;;;;;;9.30;100.00;100624.16;7397457;19;20099;-71
2022/12/26 12:38:27;;;;;;;13.30;7.75;;;;;;;9.30;100.00;100621.53;7398510;19;20082;-70
2022/12/26 12:41:07;;;;;;;8.30;6.25;;;;;;;9.31;100.00;100615.41;7399982;19;20031;-73
2022/12/26 12:43:44;;;;;;;9.45;6.07;;;;;;;9.32;100.00;100621.53;7399270;19;20014;-70
2022/12/26 12:46:24;;;;;;;9.80;6.13;;;;;;;9.34;100.00;100617.09;7398212;19;20029;-70
2022/12/26 12:49:13;;;;;;;9.13;6.28;;;;;;;9.35;100.00;100605.75;7399382;19;20011;-69
2022/12/26 12:51:49;;;;;;;10.20;7.32;;;;;;;9.35;100.00;100598.78;7398925;19;20086;-70
2022/12/26 12:54:52;;;;;;;10.43;6.60;;;;;;;9.37;100.00;100594.34;7398521;19;20018;-70
2022/12/26 12:57:29;;;;;;;8.00;6.15;;;;;;;9.38;100.00;100590.00;7395982;19;20438;-70
2022/12/26 13:00:10;;;;;;;9.98;6.72;;;;;;;9.38;100.00;100601.31;7398545;19;20074;-71
2022/12/26 13:02:44;;;;;;;10.07;7.00;;;;;;;9.39;100.00;100591.69;7398782;19;20033;-70
2022/12/26 13:05:27;;;;;;;12.18;9.68;;;;;;;9.39;100.00;100584.72;7396459;19;20086;-71
2022/12/26 13:08:01;;;;;;;9.43;8.07;;;;;;;9.39;100.00;100591.69;7397881;19;20429;-73
2022/12/26 13:10:34;;;;;;;8.93;7.60;;;;;;;9.39;100.00;100610.03;7397881;19;20091;-76
2022/12/26 13:13:17;;;;;;;11.13;7.18;;;;;;;9.40;100.00;100610.03;7396280;19;20018;-73
2022/12/26 13:15:50;;;;;;;9.27;7.53;;;;;;;9.40;100.00;100609.13;7397553;19;20026;-73
2022/12/26 13:18:24;;;;;;;11.40;7.70;;;;;;;9.40;100.00;100614.38;7397705;19;20545;-75
2022/12/26 13:20:59;;;;;;;11.57;8.35;;;;;;;9.40;100.00;100607.41;7398632;19;20022;-74
2022/12/26 13:26:17;;;;;;;11.90;7.78;;;;;;;9.41;100.00;100616.09;7396589;19;20022;-74
2022/12/26 13:28:54;;;;;;;11.80;7.82;;;;;;;9.40;100.00;100610.03;7397559;19;20418;-73
2022/12/26 13:31:23;;;;;;;11.40;8.18;;;;;;;9.42;100.00;100612.59;7395098;19;20019;-73
2022/12/26 13:33:52;;;;;;;10.40;7.47;;;;;;;9.40;100.00;100615.25;7394798;19;20416;-72
2022/12/26 13:36:41;;;;;;;9.13;7.65;;;;;;;9.40;100.00;100619.63;7395327;19;20090;-71
2022/12/26 13:39:48;;;;;;;8.55;7.65;;;;;;;9.40;100.00;100625.72;7395424;19;20082;-72
2022/12/26 13:45:57;;;;;;;9.55;6.13;;;;;;;9.36;100.00;100624.03;7397286;19;20018;-73
2022/12/26 13:49:08;;;;;;;9.02;6.60;;;;;;;9.33;100.00;100624.13;7394078;19;20023;-73
2022/12/26 13:52:24;;;;;;;7.03;6.15;;;;;;;9.34;100.00;100619.72;7397389;19;20018;-74
2022/12/26 13:55:29;;;;;;;11.10;7.03;;;;;;;9.26;100.00;100627.72;7396257;19;20489;-71
2022/12/26 13:58:23;;;;;;;10.10;6.90;;;;;;;9.27;100.00;100638.16;7397361;19;20081;-73
2022/12/26 14:00:55;;;;;;;8.77;5.82;;;;;;;9.23;100.00;100631.25;7396902;19;20073;-72
2022/12/26 14:03:57;;;;;;;9.00;6.50;;;;;;;9.18;100.00;100635.72;7394825;19;20422;-73
2022/12/26 14:06:49;;;;;;;9.35;6.55;;;;;;;9.15;100.00;100630.56;7395211;19;20085;-72
2022/12/26 14:09:36;;;;;;;6.93;5.65;;;;;;;9.07;100.00;100627.19;7395709;19;20421;-71
2022/12/26 14:12:25;;;;;;;9.68;6.38;;;;;;;9.08;100.00;100649.88;7396095;19;20026;-72
2022/12/26 14:15:06;;;;;;;15.93;9.15;;;;;;;9.04;100.00;100643.81;7393632;19;20078;-73
2022/12/26 14:17:47;;;;;;;8.48;7.20;;;;;;;9.03;100.00;100654.31;7395574;19;20070;-73
2022/12/26 14:20:31;;;;;;;6.88;5.05;;;;;;;8.99;100.00;100663.97;7396243;19;20090;-72
2022/12/26 14:23:13;;;;;;;10.07;4.95;;;;;;;8.96;100.00;100667.50;7395703;19;20502;-74